Time;durP1;ratioP1;P1;durP2;ratioP2;P2;SDS_P1;SDS_P2;PMS_P1;PMS_P2;Temp;Humidity;BMP_temperature;BMP_pressure;BME280_temperature;BME280_humidity;BME280_pressure;Samples;Min_cycle;Max_cycle;Signal;HPM_P1;HPM_P2
2022/04/06 00:01:24;;;;;;;;;;;;;;;7.17;79.60;99102.61;1724189;83;20211;-70
2022/04/06 00:03:50;;;;;;;;;;;;;;;7.19;79.65;99108.55;1723971;83;20160;-70
2022/04/06 00:06:16;;;;;;;;;;;;;;;7.18;79.71;99108.21;1724236;83;20306;-70
2022/04/06 00:08:42;;;;;;;;;;;;;;;7.20;79.76;99110.70;1724318;83;21165;-70
2022/04/06 00:11:08;;;;;;;;;;;;;;;7.19;79.83;99110.37;1724359;83;20175;-70
2022/04/06 00:13:34;;;;;;;;;;;;;;;7.19;79.91;99104.56;1724225;83;20173;-70
2022/04/06 00:16:00;;;;;;;;;;;;;;;7.18;79.97;99105.56;1724143;83;20512;-70
2022/04/06 00:18:26;;;;;;;;;;;;;;;7.18;80.02;99110.06;1724259;83;20254;-70
2022/04/06 00:20:51;;;;;;;;;;;;;;;7.18;80.10;99110.86;1724146;83;21022;-70
2022/04/06 00:23:17;;;;;;;;;;;;;;;7.17;80.15;99103.94;1724215;83;20179;-70
2022/04/06 00:25:43;;;;;;;;;;;;;;;7.18;80.24;99108.21;1724310;83;20309;-70
2022/04/06 00:28:09;;;;;;;;;;;;;;;7.19;80.29;99111.20;1724356;83;20167;-70
2022/04/06 00:30:34;;;;;;;;;;;;;;;7.21;80.34;99115.83;1723965;83;20163;-70
2022/04/06 00:33:00;;;;;;;;;;;;;;;7.20;80.41;99108.87;1723958;82;20662;-70
2022/04/06 00:35:29;;;;;;;;;;;;;;;7.21;80.47;99105.23;1724096;83;20210;-70
2022/04/06 00:37:57;;;;;;;;;;;;;;;7.22;80.52;99109.50;1724211;83;20160;-70
2022/04/06 00:40:23;;;;;;;;;;;;;;;7.24;80.61;99107.52;1723757;82;20149;-70
2022/04/06 00:42:50;;;;;;;;;;;;;;;7.24;80.68;99115.47;1724029;83;20165;-70
2022/04/06 00:45:16;;;;;;;;;;;;;;;7.23;80.72;99105.86;1724135;83;21948;-70
2022/04/06 00:47:42;;;;;;;;;;;;;;;7.24;80.78;99101.38;1723773;83;20273;-70
2022/04/06 00:50:08;;;;;;;;;;;;;;;7.23;80.82;99097.91;1724134;83;20184;-71
2022/04/06 00:52:35;;;;;;;;;;;;;;;7.24;80.85;99096.91;1724061;83;20185;-70
2022/04/06 00:55:01;;;;;;;;;;;;;;;7.25;80.90;99106.48;1724255;83;20176;-70
2022/04/06 00:57:27;;;;;;;;;;;;;;;7.24;80.94;99103.54;1724236;83;21172;-70
2022/04/06 00:59:53;;;;;;;;;;;;;;;7.23;80.98;99109.84;1723984;82;20218;-70
2022/04/06 01:02:18;;;;;;;;;;;;;;;7.23;81.03;99107.68;1723948;83;20186;-70
2022/04/06 01:04:44;;;;;;;;;;;;;;;7.23;81.05;99105.03;1724157;83;20171;-70
2022/04/06 01:07:10;;;;;;;;;;;;;;;7.24;81.09;99104.03;1724356;83;20763;-70
2022/04/06 01:09:36;;;;;;;;;;;;;;;7.25;81.12;99103.84;1697331;83;21152;-71
2022/04/06 01:12:03;;;;;;;;;;;;;;;7.26;81.15;99100.19;1724123;83;20258;-70
2022/04/06 01:14:29;;;;;;;;;;;;;;;7.29;81.20;99105.12;1724077;83;20164;-70
2022/04/06 01:17:00;;;;;;;;;;;;;;;7.31;81.23;99100.98;1724198;83;20732;-70
2022/04/06 01:19:31;;;;;;;;;;;;;;;7.34;81.23;99094.81;1724284;83;20192;-70
2022/04/06 01:21:56;;;;;;;;;;;;;;;7.36;81.29;99095.45;1724004;83;22140;-70
2022/04/06 01:24:23;;;;;;;;;;;;;;;7.39;81.33;99094.25;1724253;83;20246;-71
2022/04/06 01:26:49;;;;;;;;;;;;;;;7.40;81.36;99095.41;1724014;83;20373;-70
2022/04/06 01:29:14;;;;;;;;;;;;;;;7.42;81.41;99094.71;1697606;83;20189;-70
2022/04/06 01:31:40;;;;;;;;;;;;;;;7.45;81.45;99093.05;1724071;83;20309;-70
2022/04/06 01:34:06;;;;;;;;;;;;;;;7.47;81.46;99100.30;1724042;83;21112;-70
2022/04/06 01:36:32;;;;;;;;;;;;;;;7.49;81.50;99093.51;1724270;83;20182;-70
2022/04/06 01:38:58;;;;;;;;;;;;;;;7.51;81.52;99094.97;1724082;83;20214;-70
2022/04/06 01:41:32;;;;;;;;;;;;;;;7.53;81.55;99092.94;1724284;83;20207;-70
2022/04/06 01:43:58;;;;;;;;;;;;;;;7.55;81.60;99091.45;1723787;83;20152;-70
2022/04/06 01:46:23;;;;;;;;;;;;;;;7.60;81.63;99096.21;1724221;83;21876;-70
2022/04/06 01:54:17;;;;;;;;;;;;;;;7.70;81.75;99095.43;1724455;83;20141;-70
2022/04/06 01:56:43;;;;;;;;;;;;;;;7.74;81.79;99094.06;1724260;83;20255;-70
2022/04/06 01:59:09;;;;;;;;;;;;;;;7.75;81.82;99095.69;1724245;83;21145;-70
2022/04/06 02:01:35;;;;;;;;;;;;;;;7.77;81.85;99095.02;1716690;82;20184;-70
2022/04/06 02:04:06;;;;;;;;;;;;;;;7.79;81.88;99096.97;1703382;84;20162;-70
2022/04/06 02:06:29;;;;;;;;;;;;;;;7.81;81.91;99101.61;1656544;86;20458;-70
2022/04/06 02:08:56;;;;;;;;;;;;;;;7.82;81.92;99099.25;1703515;84;20181;-70
2022/04/06 02:11:21;;;;;;;;;;;;;;;7.83;81.97;99100.41;1657127;86;21110;-70
2022/04/06 02:13:47;;;;;;;;;;;;;;;7.86;82.02;99092.57;1703103;83;20192;-70
2022/04/06 02:16:13;;;;;;;;;;;;;;;7.89;82.03;99094.85;1657129;86;20256;-70
2022/04/06 02:18:39;;;;;;;;;;;;;;;7.90;82.05;99092.53;1703463;84;20177;-70
2022/04/06 02:21:05;;;;;;;;;;;;;;;7.89;82.09;99094.35;1686104;84;20202;-70
2022/04/06 02:23:30;;;;;;;;;;;;;;;7.92;82.15;99099.78;1683198;85;21168;-70
2022/04/06 02:25:56;;;;;;;;;;;;;;;7.92;82.17;99082.53;1656943;86;20315;-70
2022/04/06 02:28:22;;;;;;;;;;;;;;;7.92;82.22;99091.83;1703167;84;20181;-70
2022/04/06 02:30:48;;;;;;;;;;;;;;;7.92;82.27;99087.84;1656984;86;20714;-70
2022/04/06 02:33:13;;;;;;;;;;;;;;;7.92;82.28;99089.17;1703276;84;20225;-70
2022/04/06 02:35:39;;;;;;;;;;;;;;;7.92;82.34;99083.86;1656872;86;21061;-70
2022/04/06 02:38:05;;;;;;;;;;;;;;;7.92;82.37;99089.17;1703382;84;20643;-70
2022/04/06 02:40:33;;;;;;;;;;;;;;;7.92;82.41;99087.34;1656946;85;20794;-70
2022/04/06 02:42:59;;;;;;;;;;;;;;;7.93;82.46;99088.17;1656624;86;20166;-70
2022/04/06 02:45:25;;;;;;;;;;;;;;;7.95;82.49;99087.50;1684387;85;20792;-70
2022/04/06 02:47:50;;;;;;;;;;;;;;;7.94;82.54;99072.58;1684564;85;21293;-70
2022/04/06 02:50:16;;;;;;;;;;;;;;;7.95;82.55;99084.84;1684496;85;20203;-70
2022/04/06 02:52:42;;;;;;;;;;;;;;;7.94;82.62;99081.36;1684045;85;20208;-72
2022/04/06 02:55:12;;;;;;;;;;;;;;;7.96;82.64;99081.16;1684437;85;20577;-71
2022/04/06 02:57:39;;;;;;;;;;;;;;;7.97;82.69;99080.16;1684249;85;20214;-70
2022/04/06 03:00:06;;;;;;;;;;;;;;;7.97;82.72;99070.38;1684377;85;21823;-69
2022/04/06 03:02:32;;;;;;;;;;;;;;;7.97;82.77;99074.85;1677234;85;20182;-70
2022/04/06 03:04:58;;;;;;;;;;;;;;;7.98;82.81;99072.52;1677663;85;20199;-69
2022/04/06 03:07:23;;;;;;;;;;;;;;;7.98;82.84;99074.68;1677475;85;20503;-69
2022/04/06 03:09:49;;;;;;;;;;;;;;;8.01;82.88;99070.82;1677349;85;20157;-70
2022/04/06 03:12:16;;;;;;;;;;;;;;;8.02;82.93;99072.48;1677377;85;22130;-70
2022/04/06 03:14:41;;;;;;;;;;;;;;;8.03;82.96;99068.79;1656175;85;20212;-70
2022/04/06 03:17:07;;;;;;;;;;;;;;;8.02;83.00;99076.46;1656533;86;20263;-70
2022/04/06 03:19:34;;;;;;;;;;;;;;;8.04;83.02;99074.42;1656558;85;20180;-70
2022/04/06 03:22:00;;;;;;;;;;;;;;;8.04;83.03;99077.91;1656628;85;20171;-70
2022/04/06 03:24:26;;;;;;;;;;;;;;;8.05;83.06;99074.75;1656529;85;21888;-70
2022/04/06 03:26:52;;;;;;;;;;;;;;;8.04;83.09;99073.93;1656348;85;20203;-70
2022/04/06 03:29:18;;;;;;;;;;;;;;;8.05;83.11;99073.43;1656472;85;20295;-70
2022/04/06 03:31:44;;;;;;;;;;;;;;;8.05;83.13;99065.46;1656572;86;20215;-70
2022/04/06 03:34:09;;;;;;;;;;;;;;;8.07;83.16;99068.73;1656753;85;20199;-70
2022/04/06 03:36:35;;;;;;;;;;;;;;;8.06;83.19;99069.73;1656593;85;21070;-70
2022/04/06 03:39:01;;;;;;;;;;;;;;;8.07;83.23;99070.07;1656339;85;20203;-70
2022/04/06 03:41:27;;;;;;;;;;;;;;;8.06;83.25;99067.09;1656486;86;20260;-70
2022/04/06 03:43:53;;;;;;;;;;;;;;;8.08;83.29;99067.73;1656344;85;20183;-70
2022/04/06 03:46:19;;;;;;;;;;;;;;;8.09;83.32;99068.56;1656541;86;20204;-70
2022/04/06 03:48:44;;;;;;;;;;;;;;;8.09;83.35;99061.43;1689121;83;21149;-70
2022/04/06 03:51:10;;;;;;;;;;;;;;;8.11;83.36;99068.69;1732026;83;20235;-70
2022/04/06 03:53:36;;;;;;;;;;;;;;;8.13;83.41;99064.53;1707000;84;20235;-70
2022/04/06 03:56:02;;;;;;;;;;;;;;;8.14;83.46;99072.30;1707258;83;20188;-70
2022/04/06 03:58:29;;;;;;;;;;;;;;;8.13;83.48;99066.66;1707178;83;20182;-70
2022/04/06 04:00:54;;;;;;;;;;;;;;;8.13;83.51;99069.31;1706772;83;21121;-70
2022/04/06 04:03:20;;;;;;;;;;;;;;;8.14;83.54;99065.66;1706556;84;20311;-70
2022/04/06 04:05:46;;;;;;;;;;;;;;;8.16;83.56;99067.64;1706680;82;20276;-69
2022/04/06 04:08:12;;;;;;;;;;;;;;;8.15;83.58;99058.52;1706966;84;20213;-70
2022/04/06 04:10:38;;;;;;;;;;;;;;;8.16;83.61;99067.64;1706673;84;20301;-70
2022/04/06 04:13:04;;;;;;;;;;;;;;;8.16;83.62;99078.27;1706510;84;21231;-70
2022/04/06 04:15:31;;;;;;;;;;;;;;;8.16;83.66;99071.63;1706788;84;20213;-70
2022/04/06 04:17:57;;;;;;;;;;;;;;;8.17;83.67;99079.88;1706744;84;20206;-70
2022/04/06 04:20:23;;;;;;;;;;;;;;;8.18;83.69;99071.42;1706763;84;20181;-70
2022/04/06 04:22:49;;;;;;;;;;;;;;;8.19;83.70;99074.40;1706832;84;20316;-70
2022/04/06 04:25:15;;;;;;;;;;;;;;;8.18;83.72;99073.58;1706776;84;21112;-70
2022/04/06 04:27:41;;;;;;;;;;;;;;;8.19;83.75;99080.54;1706442;84;20224;-71
2022/04/06 04:30:08;;;;;;;;;;;;;;;8.20;83.75;99084.81;1706878;84;20178;-70
2022/04/06 04:32:34;;;;;;;;;;;;;;;8.22;83.77;99088.63;1706619;84;20202;-70
2022/04/06 04:35:03;;;;;;;;;;;;;;;8.22;83.76;99084.14;1706659;84;20844;-70
2022/04/06 04:37:28;;;;;;;;;;;;;;;8.23;83.78;99087.13;1706451;84;20942;-70
2022/04/06 04:39:54;;;;;;;;;;;;;;;8.23;83.80;99085.80;1706411;84;20495;-70
2022/04/06 04:42:19;;;;;;;;;;;;;;;8.25;83.83;99088.25;1706726;84;20871;-70
2022/04/06 04:44:46;;;;;;;;;;;;;;;8.25;83.84;99090.41;1706511;84;20598;-70
2022/04/06 04:47:12;;;;;;;;;;;;;;;8.26;83.86;99092.56;1707104;84;20216;-70
2022/04/06 04:49:37;;;;;;;;;;;;;;;8.26;83.90;99093.89;1706718;84;21068;-70
2022/04/06 04:52:04;;;;;;;;;;;;;;;8.25;83.90;99091.73;1706814;84;20204;-70
2022/04/06 04:54:30;;;;;;;;;;;;;;;8.26;83.92;99096.05;1706936;84;20193;-70
2022/04/06 04:56:55;;;;;;;;;;;;;;;8.25;83.94;99099.70;1706698;84;20189;-70
2022/04/06 04:59:21;;;;;;;;;;;;;;;8.26;83.94;99096.05;1706967;84;20809;-70
2022/04/06 05:01:47;;;;;;;;;;;;;;;8.27;83.96;99097.66;1704497;83;21148;-70
2022/04/06 05:04:13;;;;;;;;;;;;;;;8.28;84.00;99104.66;1684951;85;20185;-70
2022/04/06 05:06:39;;;;;;;;;;;;;;;8.27;84.03;99105.63;1702693;84;20482;-70
2022/04/06 05:09:05;;;;;;;;;;;;;;;8.27;84.05;99099.00;1702733;84;20176;-70
2022/04/06 05:11:31;;;;;;;;;;;;;;;8.27;84.08;99110.95;1702254;84;20197;-70
2022/04/06 05:13:57;;;;;;;;;;;;;;;8.26;84.11;99114.63;1702728;84;21103;-70
2022/04/06 05:16:23;;;;;;;;;;;;;;;8.26;84.15;99111.98;1702774;84;20330;-70
2022/04/06 05:18:48;;;;;;;;;;;;;;;8.26;84.15;99117.29;1702939;84;20212;-70
2022/04/06 05:21:14;;;;;;;;;;;;;;;8.28;84.18;99117.09;1702972;84;20256;-70
2022/04/06 05:23:40;;;;;;;;;;;;;;;8.29;84.22;99119.60;1702978;84;20240;-70
2022/04/06 05:26:06;;;;;;;;;;;;;;;8.28;84.24;99125.91;1702959;84;21048;-70
2022/04/06 05:28:32;;;;;;;;;;;;;;;8.27;84.26;99117.59;1702681;84;20210;-70
2022/04/06 05:30:57;;;;;;;;;;;;;;;8.27;84.28;99121.57;1703058;84;20338;-70
2022/04/06 05:33:23;;;;;;;;;;;;;;;8.26;84.30;99114.63;1702656;84;20193;-70
2022/04/06 05:35:49;;;;;;;;;;;;;;;8.27;84.33;99114.93;1702887;84;20285;-70
2022/04/06 05:38:15;;;;;;;;;;;;;;;8.28;84.32;99123.73;1702988;84;21119;-70
2022/04/06 05:40:41;;;;;;;;;;;;;;;8.29;84.35;99119.60;1702742;84;20224;-70
2022/04/06 05:43:07;;;;;;;;;;;;;;;8.29;84.36;99124.91;1702726;84;20501;-70
2022/04/06 05:45:32;;;;;;;;;;;;;;;8.29;84.37;99122.25;1702639;84;20197;-70
2022/04/06 05:47:58;;;;;;;;;;;;;;;8.31;84.39;99114.08;1703041;84;20229;-70
2022/04/06 05:50:24;;;;;;;;;;;;;;;8.31;84.42;99117.56;1702771;84;21175;-70
2022/04/06 05:52:50;;;;;;;;;;;;;;;8.32;84.43;99125.86;1702815;84;20174;-70
2022/04/06 05:55:16;;;;;;;;;;;;;;;8.34;84.46;99127.81;1702806;84;20280;-70
2022/04/06 05:57:42;;;;;;;;;;;;;;;8.36;84.45;99132.95;1702862;84;20252;-70
2022/04/06 06:00:08;;;;;;;;;;;;;;;8.37;84.46;99128.77;1702950;84;20252;-70
2022/04/06 06:02:35;;;;;;;;;;;;;;;8.41;84.49;99137.19;1719357;83;21939;-70
2022/04/06 06:05:01;;;;;;;;;;;;;;;8.44;84.50;99138.96;1728183;83;20200;-70
2022/04/06 06:07:26;;;;;;;;;;;;;;;8.46;84.50;99134.30;1727812;83;20215;-70
2022/04/06 06:09:52;;;;;;;;;;;;;;;8.48;84.51;99140.23;1728072;83;20279;-70
2022/04/06 06:12:18;;;;;;;;;;;;;;;8.51;84.51;99143.84;1728070;83;20211;-70
2022/04/06 06:14:44;;;;;;;;;;;;;;;8.55;84.52;99146.95;1728022;83;21856;-70
2022/04/06 06:17:10;;;;;;;;;;;;;;;8.55;84.52;99148.81;1727899;83;20209;-70
2022/04/06 06:19:36;;;;;;;;;;;;;;;8.54;84.53;99154.63;1728285;83;20227;-70
2022/04/06 06:22:02;;;;;;;;;;;;;;;8.56;84.53;99162.39;1728202;83;20271;-70
2022/04/06 06:24:28;;;;;;;;;;;;;;;8.56;84.54;99165.05;1728083;83;20205;-70
2022/04/06 06:26:54;;;;;;;;;;;;;;;8.55;84.54;99161.56;1728030;83;21153;-70
2022/04/06 06:29:21;;;;;;;;;;;;;;;8.56;84.54;99165.05;1727977;83;20219;-70
2022/04/06 06:31:47;;;;;;;;;;;;;;;8.53;84.53;99162.27;1727984;83;20188;-71
2022/04/06 06:34:13;;;;;;;;;;;;;;;8.55;84.54;99158.11;1728133;83;20343;-70
2022/04/06 06:36:39;;;;;;;;;;;;;;;8.56;84.54;99161.06;1728314;83;20192;-71
2022/04/06 06:39:04;;;;;;;;;;;;;;;8.56;84.53;99170.36;1728214;83;21211;-71
2022/04/06 06:41:30;;;;;;;;;;;;;;;8.55;84.53;99162.09;1727807;83;20226;-70
2022/04/06 06:43:58;;;;;;;;;;;;;;;8.59;84.53;99168.66;1728109;83;20215;-71
2022/04/06 06:46:24;;;;;;;;;;;;;;;8.58;84.50;99165.70;1727990;83;20409;-71
2022/04/06 06:48:51;;;;;;;;;;;;;;;8.61;84.52;99166.66;1727904;83;20292;-71
2022/04/06 06:51:17;;;;;;;;;;;;;;;8.63;84.51;99181.89;1728110;83;21085;-71
2022/04/06 06:53:43;;;;;;;;;;;;;;;8.64;84.54;99174.25;1728109;83;20195;-71
2022/04/06 06:56:09;;;;;;;;;;;;;;;8.64;84.53;99180.89;1728067;83;20220;-71
2022/04/06 06:58:35;;;;;;;;;;;;;;;8.62;84.53;99189.57;1728057;83;20215;-70
2022/04/06 07:01:01;;;;;;;;;;;;;;;8.61;84.58;99190.57;1728341;83;20203;-71
2022/04/06 07:03:27;;;;;;;;;;;;;;;8.60;84.59;99196.38;1727841;83;21129;-71
2022/04/06 07:05:53;;;;;;;;;;;;;;;8.62;84.63;99192.23;1728096;83;20203;-71
2022/04/06 07:08:19;;;;;;;;;;;;;;;8.63;84.64;99180.06;1728048;83;20508;-71
2022/04/06 07:10:45;;;;;;;;;;;;;;;8.64;84.67;99191.52;1727903;83;20303;-70
2022/04/06 07:13:16;;;;;;;;;;;;;;;8.67;84.72;99193.80;1728122;83;20192;-70
2022/04/06 07:15:41;;;;;;;;;;;;;;;8.70;84.74;99188.11;1728046;83;21171;-71
2022/04/06 07:18:11;;;;;;;;;;;;;;;8.70;84.76;99188.11;1728131;83;20830;-71
2022/04/06 07:20:37;;;;;;;;;;;;;;;8.72;84.82;99178.95;1728053;83;20177;-71
2022/04/06 07:23:04;;;;;;;;;;;;;;;8.74;84.82;99178.75;1728077;83;20463;-71
2022/04/06 07:25:30;;;;;;;;;;;;;;;8.74;84.82;99176.09;1728015;83;20185;-71
2022/04/06 07:27:56;;;;;;;;;;;;;;;8.71;84.84;99182.62;1727811;83;20684;-71
2022/04/06 07:30:22;;;;;;;;;;;;;;;8.72;84.83;99188.76;1728003;83;20506;-71
2022/04/06 07:32:48;;;;;;;;;;;;;;;8.71;84.85;99191.09;1727903;83;20207;-70
2022/04/06 07:35:14;;;;;;;;;;;;;;;8.70;84.82;99196.08;1728254;83;20199;-71
2022/04/06 07:37:42;;;;;;;;;;;;;;;8.68;84.83;99198.94;1727953;83;20779;-71
2022/04/06 07:40:10;;;;;;;;;;;;;;;8.65;84.80;99201.15;1727253;83;21853;-71
2022/04/06 07:42:36;;;;;;;;;;;;;;;8.63;84.79;99203.16;1728008;83;20549;-70
2022/04/06 07:45:07;;;;;;;;;;;;;;;8.62;84.80;99204.19;1728089;83;20232;-70
2022/04/06 07:47:33;;;;;;;;;;;;;;;8.59;84.76;99205.86;1727384;83;20236;-70
2022/04/06 07:50:00;;;;;;;;;;;;;;;8.59;84.78;99210.67;1727885;83;20177;-70
2022/04/06 07:52:30;;;;;;;;;;;;;;;8.60;84.77;99200.87;1728159;83;21115;-70
2022/04/06 07:54:56;;;;;;;;;;;;;;;8.60;84.77;99204.86;1727879;83;20193;-70
2022/04/06 07:57:24;;;;;;;;;;;;;;;8.58;84.75;99198.92;1728134;83;20282;-70
2022/04/06 07:59:52;;;;;;;;;;;;;;;8.57;84.72;99201.25;1727959;83;20212;-70
2022/04/06 08:02:18;;;;;;;;;;;;;;;8.55;84.73;99194.78;1727339;83;20508;-70
2022/04/06 08:04:44;;;;;;;;;;;;;;;8.52;84.70;99209.27;1727789;83;21164;-70
2022/04/06 08:07:10;;;;;;;;;;;;;;;8.53;84.69;99198.14;1728272;83;20219;-71
2022/04/06 08:09:35;;;;;;;;;;;;;;;8.55;84.72;99199.30;1727881;83;20349;-71
2022/04/06 08:12:01;;;;;;;;;;;;;;;8.61;84.70;99205.19;1728077;83;20184;-71
2022/04/06 08:14:28;;;;;;;;;;;;;;;8.65;84.69;99190.52;1728215;83;20464;-71
2022/04/06 08:16:55;;;;;;;;;;;;;;;8.72;84.72;99200.72;1728071;83;21106;-70
2022/04/06 08:19:22;;;;;;;;;;;;;;;8.82;84.72;99201.23;1727991;83;20555;-71
2022/04/06 08:21:49;;;;;;;;;;;;;;;8.97;84.71;99198.03;1728029;83;20477;-71
2022/04/06 08:24:15;;;;;;;;;;;;;;;9.17;84.72;99196.39;1727915;83;20560;-71
2022/04/06 08:26:41;;;;;;;;;;;;;;;9.43;84.76;99193.95;1727944;83;20168;-71
2022/04/06 08:29:07;;;;;;;;;;;;;;;9.70;84.79;99198.16;1727920;83;21076;-70
2022/04/06 08:31:33;;;;;;;;;;;;;;;10.10;84.82;99198.72;1728104;83;20180;-71
2022/04/06 08:33:59;;;;;;;;;;;;;;;10.31;84.76;99201.33;1727864;83;20254;-71
2022/04/06 08:36:24;;;;;;;;;;;;;;;10.60;84.76;99199.41;1728156;83;20187;-71
2022/04/06 08:38:50;;;;;;;;;;;;;;;10.85;84.70;99196.52;1727903;83;20263;-71
2022/04/06 08:41:16;;;;;;;;;;;;;;;11.05;84.63;99193.37;1728019;83;21957;-71
2022/04/06 08:43:42;;;;;;;;;;;;;;;11.20;84.56;99194.53;1728007;83;20500;-71
2022/04/06 08:46:11;;;;;;;;;;;;;;;11.39;84.50;99191.08;1727626;83;20215;-71
2022/04/06 08:48:37;;;;;;;;;;;;;;;11.46;84.40;99191.39;1727928;83;20173;-71
2022/04/06 08:51:09;;;;;;;;;;;;;;;11.51;84.32;99194.25;1727435;83;20208;-71
2022/04/06 08:53:39;;;;;;;;;;;;;;;11.65;84.27;99188.91;1727951;83;21256;-71
2022/04/06 08:56:06;;;;;;;;;;;;;;;11.84;84.12;99201.46;1727968;83;20189;-71
2022/04/06 08:58:32;;;;;;;;;;;;;;;11.90;83.96;99192.61;1727923;83;20204;-71
2022/04/06 09:00:58;;;;;;;;;;;;;;;11.87;83.80;99184.51;1728049;83;20387;-71
2022/04/06 09:03:24;;;;;;;;;;;;;;;11.92;83.63;99185.23;1727819;83;20188;-71
2022/04/06 09:06:04;;;;;;;;;;;;;;;12.03;83.55;99184.59;1728206;83;21201;-71
2022/04/06 09:08:41;;;;;;;;;;;;;;;12.07;83.27;99188.47;1726296;83;20172;-71
2022/04/06 09:11:08;;;;;;;;;;;;;;;12.16;83.07;99185.89;1727421;83;20224;-71
2022/04/06 09:13:34;;;;;;;;;;;;;;;12.42;82.90;99186.30;1727976;83;20507;-71
2022/04/06 09:16:01;;;;;;;;;;;;;;;12.63;82.72;99185.22;1728264;83;20179;-71
2022/04/06 09:18:35;;;;;;;;;;;;;;;12.62;82.45;99180.89;1728074;83;21072;-71
2022/04/06 09:21:02;;;;;;;;;;;;;;;12.75;82.26;99181.64;1726654;83;20184;-71
2022/04/06 09:23:31;;;;;;;;;;;;;;;12.85;82.02;99177.16;1728120;83;20177;-71
2022/04/06 09:26:09;;;;;;;;;;;;;;;12.83;81.71;99168.03;1728194;83;20176;-71
2022/04/06 09:28:47;;;;;;;;;;;;;;;12.62;81.37;99175.03;1728053;83;20196;-71
2022/04/06 09:31:14;;;;;;;;;;;;;;;12.62;81.12;99164.84;1728000;83;21742;-71
2022/04/06 09:33:41;;;;;;;;;;;;;;;12.54;80.85;99168.58;1727759;83;20217;-71
2022/04/06 09:36:20;;;;;;;;;;;;;;;12.59;80.62;99163.94;1728214;83;20166;-71
2022/04/06 09:38:50;;;;;;;;;;;;;;;12.81;80.48;99167.41;1727902;83;20204;-71
2022/04/06 09:41:17;;;;;;;;;;;;;;;13.12;80.21;99154.61;1728010;83;20224;-71
2022/04/06 09:43:45;;;;;;;;;;;;;;;13.39;79.86;99157.38;1727997;83;21121;-71
2022/04/06 09:49:14;;;;;;;;;;;;;;;13.60;79.03;99158.02;1727956;83;20181;-71
2022/04/06 09:51:41;;;;;;;;;;;;;;;13.48;78.39;99148.02;1727663;83;20216;-71
2022/04/06 09:54:08;;;;;;;;;;;;;;;13.21;77.85;99156.48;1727969;83;20220;-71
2022/04/06 09:56:35;;;;;;;;;;;;;;;12.99;77.55;99145.27;1727974;83;21079;-71
2022/04/06 09:59:02;;;;;;;;;;;;;;;12.68;77.05;99151.95;1727822;83;20204;-71
2022/04/06 10:01:34;;;;;;;;;;;;;;;12.43;76.77;99150.52;1728166;83;20194;-71
2022/04/06 10:04:04;;;;;;;;;;;;;;;12.31;76.54;99154.39;1717036;83;20189;-71
2022/04/06 10:06:37;;;;;;;;;;;;;;;12.21;76.32;99158.00;1714436;83;20178;-71
2022/04/06 10:09:06;;;;;;;;;;;;;;;12.18;76.17;99151.74;1714125;83;21269;-71
2022/04/06 10:11:35;;;;;;;;;;;;;;;12.16;75.98;99144.47;1714275;83;20229;-71
2022/04/06 10:14:01;;;;;;;;;;;;;;;12.15;75.64;99144.15;1714239;83;20527;-71
2022/04/06 10:16:27;;;;;;;;;;;;;;;12.13;75.35;99144.06;1714181;83;20189;-71
2022/04/06 10:18:54;;;;;;;;;;;;;;;12.11;75.13;99152.28;1714359;83;20277;-71
2022/04/06 10:21:23;;;;;;;;;;;;;;;12.07;74.93;99151.05;1714189;83;21107;-71
2022/04/06 10:24:05;;;;;;;;;;;;;;;12.01;74.78;99150.05;1714317;83;20194;-71
2022/04/06 10:26:37;;;;;;;;;;;;;;;11.91;74.67;99144.33;1714256;83;20210;-70
2022/04/06 10:29:04;;;;;;;;;;;;;;;11.77;74.49;99137.37;1714232;83;20193;-71
2022/04/06 10:31:30;;;;;;;;;;;;;;;11.62;74.34;99142.59;1714258;83;20510;-70
2022/04/06 10:34:22;;;;;;;;;;;;;;;11.47;74.14;99136.95;1714173;83;21052;-70
2022/04/06 10:37:12;;;;;;;;;;;;;;;11.40;74.01;99147.32;1714420;83;20165;-70
2022/04/06 10:39:54;;;;;;;;;;;;;;;11.36;73.90;99144.78;1714175;83;20213;-70
2022/04/06 10:42:37;;;;;;;;;;;;;;;11.38;73.79;99142.20;1713161;83;20485;-70
2022/04/06 10:45:05;;;;;;;;;;;;;;;11.48;73.71;99133.27;1714108;83;20194;-70
2022/04/06 10:47:32;;;;;;;;;;;;;;;11.70;73.57;99136.53;1714059;83;20998;-70
2022/04/06 10:50:14;;;;;;;;;;;;;;;11.96;73.50;99135.70;1714096;83;20170;-70
2022/04/06 10:52:40;;;;;;;;;;;;;;;12.11;73.38;99132.75;1714055;83;20538;-71
2022/04/06 10:55:09;;;;;;;;;;;;;;;12.17;73.24;99127.41;1687595;83;20832;-70
2022/04/06 10:58:00;;;;;;;;;;;;;;;12.18;73.11;99130.36;1714286;83;20178;-71
2022/04/06 11:00:26;;;;;;;;;;;;;;;12.20;72.95;99122.14;1714151;83;21156;-70
2022/04/06 11:02:52;;;;;;;;;;;;;;;12.23;72.79;99126.55;1714244;83;20278;-70
2022/04/06 11:05:49;;;;;;;;;;;;;;;12.31;72.69;99120.16;1713912;83;20314;-70
2022/04/06 11:11:35;;;;;;;;;;;;;;;12.43;72.14;99113.91;1689407;84;20178;-70
2022/04/06 11:14:01;;;;;;;;;;;;;;;12.51;71.92;99120.88;1703720;84;21135;-70
2022/04/06 11:16:46;;;;;;;;;;;;;;;12.51;71.75;99121.70;1703771;84;20192;-70
2022/04/06 11:19:13;;;;;;;;;;;;;;;12.58;71.66;99118.16;1703842;84;20198;-70
2022/04/06 11:21:48;;;;;;;;;;;;;;;12.64;71.37;99118.63;1703629;84;20174;-70
2022/04/06 11:24:19;;;;;;;;;;;;;;;12.74;71.21;99121.66;1703767;84;20513;-70
2022/04/06 11:26:44;;;;;;;;;;;;;;;12.76;71.06;99123.10;1703827;84;21119;-70
2022/04/06 11:29:11;;;;;;;;;;;;;;;12.87;70.95;99117.58;1703606;83;21062;-70
2022/04/06 11:31:56;;;;;;;;;;;;;;;13.06;70.80;99104.56;1703685;84;20611;-70
2022/04/06 11:34:39;;;;;;;;;;;;;;;13.21;70.52;99112.31;1703370;84;20786;-70
2022/04/06 11:37:07;;;;;;;;;;;;;;;13.36;70.26;99106.94;1703895;84;20205;-70
2022/04/06 11:39:33;;;;;;;;;;;;;;;13.43;69.90;99109.05;1703756;84;21039;-70
2022/04/06 11:42:03;;;;;;;;;;;;;;;13.54;69.58;99099.47;1703555;84;20284;-70
2022/04/06 11:44:29;;;;;;;;;;;;;;;13.61;69.18;99104.76;1703774;83;20217;-70
2022/04/06 11:46:55;;;;;;;;;;;;;;;13.48;68.79;99103.83;1703468;84;20747;-70
2022/04/06 11:49:29;;;;;;;;;;;;;;;13.23;68.53;99099.00;1683072;83;20193;-70
2022/04/06 11:51:59;;;;;;;;;;;;;;;13.04;68.44;99102.64;1675089;85;21089;-70
2022/04/06 11:54:25;;;;;;;;;;;;;;;12.80;68.11;99103.42;1675381;85;20133;-70
2022/04/06 11:56:52;;;;;;;;;;;;;;;12.56;67.76;99098.84;1675060;85;20169;-70
2022/04/06 11:59:19;;;;;;;;;;;;;;;12.37;67.64;99098.73;1675345;85;20193;-70
2022/04/06 12:01:50;;;;;;;;;;;;;;;12.22;67.52;99092.83;1675320;85;20158;-70
2022/04/06 12:04:15;;;;;;;;;;;;;;;12.10;67.31;99098.55;1674254;85;21759;-70
2022/04/06 12:06:41;;;;;;;;;;;;;;;12.01;67.11;99103.80;1674583;85;20185;-70
2022/04/06 12:09:07;;;;;;;;;;;;;;;11.94;66.96;99107.02;1675005;85;20791;-70
2022/04/06 12:11:35;;;;;;;;;;;;;;;11.96;66.85;99095.62;1675314;85;20180;-70
2022/04/06 12:14:01;;;;;;;;;;;;;;;12.07;66.74;99094.14;1675304;85;20481;-70
2022/04/06 12:16:27;;;;;;;;;;;;;;;12.26;66.61;99088.70;1675430;85;21097;-70
2022/04/06 12:18:52;;;;;;;;;;;;;;;12.43;66.51;99093.86;1675165;85;20195;-70
2022/04/06 12:21:21;;;;;;;;;;;;;;;12.53;66.33;99095.55;1675258;85;20312;-70
2022/04/06 12:23:48;;;;;;;;;;;;;;;12.50;66.12;99095.98;1675295;85;20527;-70
2022/04/06 12:26:15;;;;;;;;;;;;;;;12.42;65.96;99088.20;1675214;85;20472;-70
2022/04/06 12:28:43;;;;;;;;;;;;;;;12.35;65.85;99087.95;1675429;85;21080;-70
2022/04/06 12:31:10;;;;;;;;;;;;;;;12.26;65.63;99092.71;1675215;85;20477;-70
2022/04/06 12:33:47;;;;;;;;;;;;;;;12.23;65.62;99098.48;1675027;85;20153;-70
2022/04/06 12:36:25;;;;;;;;;;;;;;;12.28;65.63;99083.95;1675166;85;20173;-70
2022/04/06 12:39:10;;;;;;;;;;;;;;;12.33;65.60;99083.32;1675286;85;20473;-70
2022/04/06 12:42:02;;;;;;;;;;;;;;;12.36;65.58;99089.06;1674982;85;21863;-70
2022/04/06 12:44:35;;;;;;;;;;;;;;;12.42;65.59;99085.52;1675142;85;20170;-71
2022/04/06 12:47:01;;;;;;;;;;;;;;;12.50;65.52;99085.28;1675192;85;20185;-71
2022/04/06 12:49:35;;;;;;;;;;;;;;;12.62;65.42;99084.61;1675193;85;20449;-71
2022/04/06 12:52:09;;;;;;;;;;;;;;;12.71;65.30;99075.28;1674558;85;20480;-70
2022/04/06 12:54:37;;;;;;;;;;;;;;;12.71;65.17;99081.96;1674983;85;21207;-70
2022/04/06 12:57:20;;;;;;;;;;;;;;;12.67;65.09;99075.40;1675041;85;20243;-70
2022/04/06 13:00:00;;;;;;;;;;;;;;;12.64;65.02;99068.64;1675358;85;20170;-70
2022/04/06 13:02:35;;;;;;;;;;;;;;;12.64;64.97;99067.81;1675242;85;20146;-70
2022/04/06 13:05:06;;;;;;;;;;;;;;;12.60;64.94;99070.61;1674339;85;20461;-70
2022/04/06 13:07:32;;;;;;;;;;;;;;;12.58;64.87;99068.69;1656253;86;21076;-70